Terminal Aerodrome Forecast
Issued by NWS Cleveland, OH

Home | Current Version | Previous Version | Text Only | Print | Product List | Glossary Off
Versions: 1 2 3 4 5 6 7 8 9 10 11 12 13 14 15 16 17 18 19 20 21 22 23 24 25 26 27 28

000
FTUS41 KCLE 161735
TAFCLE
TAF
KCLE 161735Z 1618/1724 28012G20KT P6SM VCSH OVC025
     FM162300 31011KT P6SM OVC025
      TEMPO 1701/1705 SCT025 OVC035
     FM170700 33009KT P6SM OVC025
     FM171200 19005KT P6SM BKN025 OVC035
     FM171800 17010KT P6SM SCT035 BKN250=

USA.gov is the U.S. government's official web portal to all federal, state and local government web resources and services.